createdAt,value
2018-09-19T00:00:04.738Z,7.60
2018-09-19T00:02:33.447Z,5.70
2018-09-19T00:05:01.515Z,6.93
2018-09-19T00:07:29.590Z,7.83
2018-09-19T00:09:57.656Z,6.00
2018-09-19T00:12:25.709Z,5.93
2018-09-19T00:14:53.773Z,6.23
2018-09-19T00:17:21.831Z,7.57
2018-09-19T00:19:49.867Z,7.43
2018-09-19T00:22:17.910Z,7.60
2018-09-19T00:24:45.979Z,7.07
2018-09-19T00:27:14.051Z,6.20
2018-09-19T00:29:42.119Z,6.53
2018-09-19T00:32:10.182Z,8.20
2018-09-19T00:34:38.234Z,9.03
2018-09-19T00:37:06.331Z,8.80
2018-09-19T00:39:34.417Z,6.73
2018-09-19T00:42:02.545Z,7.00
2018-09-19T00:44:30.589Z,9.30
2018-09-19T00:46:58.637Z,7.30
2018-09-19T00:49:26.836Z,8.13
2018-09-19T00:51:54.890Z,7.70
2018-09-19T00:54:22.954Z,7.53
2018-09-19T00:56:51.035Z,7.40
2018-09-19T00:59:19.095Z,7.00
2018-09-19T01:01:47.169Z,6.63
2018-09-19T01:04:15.217Z,10.70
2018-09-19T01:06:43.313Z,6.90
2018-09-19T01:09:11.583Z,7.47
2018-09-19T01:11:39.949Z,8.47
2018-09-19T01:14:08.011Z,7.73
2018-09-19T01:16:37.031Z,6.60
2018-09-19T01:19:05.119Z,6.50
2018-09-19T01:21:33.186Z,6.30
2018-09-19T01:24:01.269Z,5.47
2018-09-19T01:26:29.368Z,6.80
2018-09-19T01:28:57.458Z,6.00
2018-09-19T01:31:25.525Z,6.23
2018-09-19T01:33:53.754Z,6.90
2018-09-19T01:36:22.000Z,6.90
2018-09-19T01:38:50.061Z,6.40
2018-09-19T01:41:18.111Z,6.40
2018-09-19T01:43:46.698Z,6.67
2018-09-19T01:46:14.793Z,6.77
2018-09-19T01:48:42.847Z,7.33
2018-09-19T01:51:10.911Z,6.60
2018-09-19T01:53:38.969Z,8.63
2018-09-19T01:56:07.042Z,6.67
2018-09-19T01:58:35.134Z,5.87
2018-09-19T02:01:03.322Z,7.10
2018-09-19T02:03:31.397Z,9.07
2018-09-19T02:05:59.495Z,7.77
2018-09-19T02:08:27.540Z,6.17
2018-09-19T02:10:55.604Z,7.80
2018-09-19T02:13:23.685Z,7.03
2018-09-19T02:15:51.748Z,5.93
2018-09-19T02:18:19.811Z,6.77
2018-09-19T02:20:47.873Z,7.97
2018-09-19T02:23:15.936Z,7.43
2018-09-19T02:25:43.992Z,4.93
2018-09-19T02:28:12.062Z,6.80
2018-09-19T02:30:40.119Z,6.43
2018-09-19T02:33:08.207Z,7.57
2018-09-19T02:35:36.272Z,6.30
2018-09-19T02:38:04.411Z,6.40
2018-09-19T02:40:32.405Z,5.90
2018-09-19T02:43:00.491Z,6.30
2018-09-19T02:45:28.528Z,6.70
2018-09-19T02:47:56.614Z,6.47
2018-09-19T02:50:24.736Z,6.30
2018-09-19T02:52:55.246Z,6.70
2018-09-19T02:55:24.224Z,8.20
2018-09-19T02:57:52.305Z,7.00
2018-09-19T03:00:20.366Z,7.60
2018-09-19T03:02:48.524Z,8.20
2018-09-19T03:05:16.499Z,6.90
2018-09-19T03:07:44.582Z,8.33
2018-09-19T03:10:12.648Z,7.23
2018-09-19T03:12:40.734Z,7.10
2018-09-19T03:15:08.921Z,7.57
2018-09-19T03:17:37.172Z,8.90
2018-09-19T03:20:05.054Z,7.97
2018-09-19T03:22:33.099Z,7.10
2018-09-19T03:25:01.184Z,6.87
2018-09-19T03:27:29.243Z,8.20
2018-09-19T03:29:57.301Z,8.83
2018-09-19T03:32:25.358Z,9.40
2018-09-19T03:34:53.416Z,8.17
2018-09-19T03:37:21.470Z,9.27
2018-09-19T03:39:49.581Z,8.93
2018-09-19T03:42:17.635Z,7.77
2018-09-19T03:44:45.738Z,9.30
2018-09-19T03:47:13.793Z,9.60
2018-09-19T03:49:41.878Z,11.60
2018-09-19T03:52:09.948Z,10.20
2018-09-19T03:54:38.005Z,10.00
2018-09-19T03:57:06.093Z,10.70
2018-09-19T03:59:34.154Z,10.70
2018-09-19T04:02:02.215Z,11.63
2018-09-19T04:04:30.293Z,11.27
2018-09-19T04:06:58.352Z,10.87
2018-09-19T04:09:26.417Z,12.17
2018-09-19T04:11:54.466Z,12.13
2018-09-19T04:14:22.555Z,14.70
2018-09-19T04:16:50.605Z,13.10
2018-09-19T04:19:18.653Z,13.57
2018-09-19T04:21:49.684Z,11.17
2018-09-19T04:24:17.964Z,14.37
2018-09-19T04:26:46.148Z,12.60
2018-09-19T04:29:14.782Z,12.90
2018-09-19T04:31:43.413Z,13.50
2018-09-19T04:34:11.733Z,12.70
2018-09-19T04:36:39.850Z,12.27
2018-09-19T04:39:09.322Z,13.30
2018-09-19T04:41:37.601Z,13.30
2018-09-19T04:44:06.694Z,12.07
2018-09-19T04:46:34.887Z,13.00
2018-09-19T04:49:02.956Z,10.80
2018-09-19T04:51:31.068Z,11.87
2018-09-19T04:53:59.122Z,12.47
2018-09-19T04:56:27.302Z,12.90
2018-09-19T04:58:55.369Z,13.50
2018-09-19T05:01:23.437Z,12.83
2018-09-19T05:03:51.517Z,12.50
2018-09-19T05:06:19.601Z,14.00
2018-09-19T05:08:47.658Z,14.30
2018-09-19T05:11:15.737Z,14.00
2018-09-19T05:13:43.835Z,14.70
2018-09-19T05:16:11.914Z,15.33
2018-09-19T05:18:39.995Z,13.60
2018-09-19T05:21:08.052Z,12.83
2018-09-19T05:23:36.112Z,13.73
2018-09-19T05:26:04.204Z,15.20
2018-09-19T05:28:32.276Z,12.93
2018-09-19T05:31:00.479Z,14.73
2018-09-19T05:33:28.632Z,14.53
2018-09-19T05:35:56.734Z,14.70
2018-09-19T05:38:24.781Z,12.10
2018-09-19T05:40:52.849Z,13.93
2018-09-19T05:43:20.985Z,12.80
2018-09-19T05:45:49.064Z,12.77
2018-09-19T05:48:17.130Z,14.13
2018-09-19T05:50:45.229Z,12.90
2018-09-19T05:53:13.305Z,12.00
2018-09-19T05:55:41.419Z,12.40
2018-09-19T05:58:09.522Z,12.27
2018-09-19T06:00:37.609Z,14.17
2018-09-19T06:03:05.864Z,13.60
2018-09-19T06:05:34.544Z,12.27
2018-09-19T06:08:02.797Z,12.30
2018-09-19T06:10:30.911Z,15.17
2018-09-19T06:12:59.091Z,13.90
2018-09-19T06:15:27.466Z,13.30
2018-09-19T06:17:55.611Z,13.33
2018-09-19T06:20:23.714Z,12.70
2018-09-19T06:22:51.821Z,12.20
2018-09-19T06:25:19.971Z,12.27
2018-09-19T06:27:48.041Z,12.00
2018-09-19T06:30:16.768Z,12.67
2018-09-19T06:32:45.307Z,13.17
2018-09-19T06:35:14.628Z,14.40
2018-09-19T06:37:42.689Z,11.27
2018-09-19T06:40:10.853Z,13.27
2018-09-19T06:42:40.549Z,11.30
2018-09-19T06:45:08.627Z,10.87
2018-09-19T06:47:36.869Z,10.90
2018-09-19T06:50:05.022Z,9.17
2018-09-19T06:52:33.375Z,9.77
2018-09-19T06:55:01.391Z,8.87
2018-09-19T06:57:29.463Z,7.90
2018-09-19T06:59:57.530Z,8.60
2018-09-19T07:02:26.255Z,9.50
2018-09-19T07:04:54.322Z,7.63
2018-09-19T07:07:22.392Z,7.00
2018-09-19T07:09:50.452Z,7.63
2018-09-19T07:12:18.562Z,8.03
2018-09-19T07:14:46.750Z,8.20
2018-09-19T07:17:14.843Z,7.70
2018-09-19T07:19:42.872Z,8.37
2018-09-19T07:22:10.925Z,7.43
2018-09-19T07:24:38.995Z,8.00
2018-09-19T07:27:07.075Z,7.70
2018-09-19T07:29:35.137Z,8.13
2018-09-19T07:32:03.638Z,9.83
2018-09-19T07:34:31.681Z,8.50
2018-09-19T07:36:59.750Z,8.60
2018-09-19T07:39:27.810Z,8.37
2018-09-19T07:41:55.966Z,8.10
2018-09-19T07:44:24.008Z,8.07
2018-09-19T07:46:52.135Z,6.53
2018-09-19T07:49:20.197Z,7.10
2018-09-19T07:51:48.581Z,8.23
2018-09-19T07:54:16.809Z,6.80
2018-09-19T07:56:44.937Z,5.90
2018-09-19T07:59:13.028Z,6.10
2018-09-19T08:01:41.149Z,7.13
2018-09-19T08:04:09.231Z,7.30
2018-09-19T08:06:37.290Z,6.40
2018-09-19T08:09:06.827Z,6.60
2018-09-19T08:11:35.259Z,6.20
2018-09-19T08:14:03.863Z,6.47
2018-09-19T08:16:32.094Z,6.70
2018-09-19T08:19:00.179Z,6.03
2018-09-19T08:21:28.229Z,7.37
2018-09-19T08:23:56.332Z,5.60
2018-09-19T08:26:24.491Z,7.20
2018-09-19T08:28:52.575Z,5.70
2018-09-19T08:31:20.648Z,6.20
2018-09-19T08:33:48.715Z,5.43
2018-09-19T08:36:16.772Z,5.70
2018-09-19T08:38:44.838Z,5.03
2018-09-19T08:41:12.902Z,5.10
2018-09-19T08:43:40.971Z,5.30
2018-09-19T08:46:09.028Z,4.63
2018-09-19T08:48:37.140Z,5.30
2018-09-19T08:51:05.355Z,4.87
2018-09-19T08:53:33.415Z,4.80
2018-09-19T08:56:01.478Z,4.20
2018-09-19T08:58:29.621Z,5.43
2018-09-19T09:00:57.794Z,5.33
2018-09-19T09:03:26.783Z,5.30
2018-09-19T09:05:55.190Z,4.83
2018-09-19T09:08:23.277Z,5.50
2018-09-19T09:10:51.313Z,5.23
2018-09-19T09:13:19.364Z,4.77
2018-09-19T09:15:47.413Z,4.93
2018-09-19T09:18:15.469Z,4.93
2018-09-19T09:20:43.540Z,5.00
2018-09-19T09:23:11.609Z,5.50
2018-09-19T09:25:39.690Z,4.37
2018-09-19T09:28:07.773Z,4.80
2018-09-19T09:30:35.928Z,3.90
2018-09-19T09:33:04.141Z,4.40
2018-09-19T09:35:32.321Z,3.80
2018-09-19T09:38:00.397Z,3.47
2018-09-19T09:40:28.484Z,3.97
2018-09-19T09:42:56.525Z,3.73
2018-09-19T09:45:24.620Z,3.50
2018-09-19T09:47:52.749Z,3.70
2018-09-19T09:50:20.827Z,4.07
2018-09-19T09:52:48.882Z,5.27
2018-09-19T09:55:17.017Z,2.83
2018-09-19T09:57:45.085Z,4.10
2018-09-19T10:00:13.172Z,3.90
2018-09-19T10:02:41.533Z,3.67
2018-09-19T10:05:09.584Z,3.90
2018-09-19T10:07:37.674Z,3.80
2018-09-19T10:10:06.037Z,4.27
2018-09-19T10:12:34.124Z,4.20
2018-09-19T10:15:02.157Z,3.40
2018-09-19T10:17:30.213Z,5.33
2018-09-19T10:19:58.282Z,5.67
2018-09-19T10:22:26.357Z,4.00
2018-09-19T10:24:54.423Z,3.53
2018-09-19T10:27:22.505Z,3.07
2018-09-19T10:29:50.568Z,3.13
2018-09-19T10:32:18.657Z,3.40
2018-09-19T10:34:46.719Z,3.17
2018-09-19T10:37:14.785Z,3.23
2018-09-19T10:39:42.854Z,2.80
2018-09-19T10:42:10.980Z,3.40
2018-09-19T10:44:39.056Z,4.00
2018-09-19T10:47:07.421Z,2.90
2018-09-19T10:49:35.480Z,5.33
2018-09-19T10:52:03.538Z,3.77
2018-09-19T10:54:31.630Z,3.00
2018-09-19T10:56:59.727Z,3.43
2018-09-19T10:59:28.876Z,4.20
2018-09-19T11:01:57.074Z,4.13
2018-09-19T11:04:25.745Z,3.80
2018-09-19T11:06:53.858Z,6.00
2018-09-19T11:09:21.918Z,3.90
2018-09-19T11:11:50.596Z,3.40
2018-09-19T11:14:18.677Z,3.70
2018-09-19T11:16:46.775Z,3.00
2018-09-19T11:19:14.826Z,3.30
2018-09-19T11:21:42.910Z,3.87
2018-09-19T11:24:10.971Z,4.10
2018-09-19T11:26:39.075Z,5.53
2018-09-19T11:29:07.131Z,3.30
2018-09-19T11:31:35.331Z,3.47
2018-09-19T11:34:03.535Z,3.90
2018-09-19T11:36:31.661Z,2.60
2018-09-19T11:39:00.473Z,2.10
2018-09-19T11:41:28.558Z,3.97
2018-09-19T11:43:56.697Z,2.10
2018-09-19T11:46:24.764Z,3.23
2018-09-19T11:48:52.862Z,4.00
2018-09-19T11:51:21.085Z,2.83
2018-09-19T11:53:49.181Z,2.40
2018-09-19T11:56:17.803Z,3.27
2018-09-19T11:58:45.886Z,3.63
2018-09-19T12:01:13.954Z,2.97
2018-09-19T12:03:42.640Z,2.30
2018-09-19T12:06:10.685Z,2.13
2018-09-19T12:08:38.764Z,3.03
2018-09-19T12:11:06.838Z,3.10
2018-09-19T12:13:35.123Z,3.03
2018-09-19T12:16:03.281Z,2.70
2018-09-19T12:18:31.977Z,3.07
2018-09-19T12:21:00.044Z,2.43
2018-09-19T12:23:28.095Z,2.33
2018-09-19T12:25:56.155Z,2.77
2018-09-19T12:28:25.077Z,3.10
2018-09-19T12:30:53.158Z,2.60
2018-09-19T12:33:21.227Z,2.50
2018-09-19T12:35:50.386Z,2.43
2018-09-19T12:38:18.461Z,2.13
2018-09-19T12:40:46.541Z,1.63
2018-09-19T12:43:14.610Z,2.80
2018-09-19T12:45:42.726Z,2.80
2018-09-19T12:48:10.785Z,2.30
2018-09-19T12:50:38.850Z,3.13
2018-09-19T12:53:06.938Z,2.93
2018-09-19T12:55:34.982Z,2.73
2018-09-19T12:58:03.615Z,3.17
2018-09-19T13:00:32.328Z,3.17
2018-09-19T13:03:00.401Z,4.37
2018-09-19T13:05:28.605Z,3.23
2018-09-19T13:07:56.681Z,3.83
2018-09-19T13:10:24.777Z,3.87
2018-09-19T13:12:52.886Z,4.80
2018-09-19T13:15:20.950Z,4.60
2018-09-19T13:17:49.016Z,3.70
2018-09-19T13:20:17.111Z,3.40
2018-09-19T13:22:45.188Z,3.67
2018-09-19T13:25:13.756Z,5.30
2018-09-19T13:27:41.814Z,3.40
2018-09-19T13:30:09.885Z,3.27
2018-09-19T13:32:37.942Z,3.50
2018-09-19T13:35:06.015Z,4.27
2018-09-19T13:37:35.189Z,3.47
2018-09-19T13:40:03.284Z,3.27
2018-09-19T13:42:32.336Z,4.00
2018-09-19T13:45:00.700Z,3.20
2018-09-19T13:47:29.763Z,3.80
2018-09-19T13:50:01.996Z,3.20
2018-09-19T13:52:30.044Z,3.57
2018-09-19T13:54:58.656Z,3.60
2018-09-19T13:57:26.708Z,3.77
2018-09-19T13:59:54.781Z,3.63
2018-09-19T14:02:22.862Z,3.73
2018-09-19T14:04:50.950Z,3.90
2018-09-19T14:07:18.997Z,4.43
2018-09-19T14:09:47.869Z,3.40
2018-09-19T14:12:16.000Z,3.50
2018-09-19T14:14:44.041Z,3.57
2018-09-19T14:17:12.152Z,3.53
2018-09-19T14:19:40.307Z,4.00
2018-09-19T14:22:08.375Z,4.00
2018-09-19T14:24:36.646Z,4.03
2018-09-19T14:27:04.697Z,3.70
2018-09-19T14:29:33.354Z,4.00
2018-09-19T14:32:01.432Z,4.20
2018-09-19T14:34:29.653Z,3.97
2018-09-19T14:36:57.701Z,3.87
2018-09-19T14:39:25.878Z,3.30
2018-09-19T14:41:53.995Z,4.00
2018-09-19T14:44:22.099Z,4.07
2018-09-19T14:46:50.170Z,4.03
2018-09-19T14:49:18.250Z,3.90
2018-09-19T14:51:46.341Z,4.80
2018-09-19T14:54:14.458Z,3.97
2018-09-19T14:56:42.523Z,3.57
2018-09-19T14:59:11.135Z,4.20
2018-09-19T15:01:39.173Z,4.60
2018-09-19T15:04:07.253Z,4.00
2018-09-19T15:06:35.325Z,4.60
2018-09-19T15:09:05.477Z,4.03
2018-09-19T15:11:33.534Z,4.33
2018-09-19T15:14:01.634Z,4.97
2018-09-19T15:16:29.780Z,4.03
2018-09-19T15:18:57.850Z,4.33
2018-09-19T15:21:25.946Z,5.07
2018-09-19T15:23:54.018Z,4.63
2018-09-19T15:26:22.069Z,5.17
2018-09-19T15:28:50.646Z,4.70
2018-09-19T15:31:18.922Z,4.00
2018-09-19T15:33:46.970Z,5.53
2018-09-19T15:36:15.112Z,5.07
2018-09-19T15:38:43.086Z,5.33
2018-09-19T15:41:11.166Z,5.20
2018-09-19T15:43:39.227Z,4.43
2018-09-19T15:46:07.278Z,5.60
2018-09-19T15:48:35.338Z,5.37
2018-09-19T15:51:03.486Z,4.47
2018-09-19T15:53:32.310Z,5.13
2018-09-19T15:56:01.445Z,4.13
2018-09-19T15:58:29.554Z,4.50
2018-09-19T16:00:57.657Z,5.77
2018-09-19T16:03:26.057Z,5.03
2018-09-19T16:05:54.804Z,5.43
2018-09-19T16:08:23.094Z,5.50
2018-09-19T16:10:51.165Z,4.67
2018-09-19T16:13:19.657Z,5.33
2018-09-19T16:15:48.386Z,4.50
2018-09-19T16:18:16.473Z,4.57
2018-09-19T16:20:44.794Z,5.37
2018-09-19T16:23:12.866Z,5.33
2018-09-19T16:25:40.926Z,6.20
2018-09-19T16:28:08.993Z,4.60
2018-09-19T16:30:37.093Z,5.03
2018-09-19T16:33:05.284Z,4.57
2018-09-19T16:35:33.353Z,5.10
2018-09-19T16:38:01.517Z,4.30
2018-09-19T16:40:29.555Z,4.87
2018-09-19T16:42:57.650Z,3.60
2018-09-19T16:45:25.766Z,4.67
2018-09-19T16:47:53.789Z,5.27
2018-09-19T16:50:21.886Z,4.90
2018-09-19T16:52:49.970Z,5.17
2018-09-19T16:55:18.054Z,4.23
2018-09-19T16:57:46.115Z,4.80
2018-09-19T17:00:15.157Z,4.60
2018-09-19T17:02:43.228Z,4.20
2018-09-19T17:05:11.286Z,5.00
2018-09-19T17:07:40.123Z,5.07
2018-09-19T17:10:08.686Z,5.73
2018-09-19T17:12:36.874Z,4.20
2018-09-19T17:15:04.928Z,4.53
2018-09-19T17:17:32.982Z,4.80
2018-09-19T17:20:01.083Z,5.03
2018-09-19T17:22:29.141Z,3.97
2018-09-19T17:24:57.197Z,5.40
2018-09-19T17:27:25.264Z,4.37
2018-09-19T17:29:53.342Z,4.90
2018-09-19T17:32:21.414Z,5.50
2018-09-19T17:34:49.482Z,6.20
2018-09-19T17:37:17.558Z,6.30
2018-09-19T17:39:45.600Z,4.93
2018-09-19T17:42:13.657Z,4.97
2018-09-19T17:44:41.718Z,6.33
2018-09-19T17:47:09.780Z,5.37
2018-09-19T17:49:38.718Z,5.50
2018-09-19T17:52:06.782Z,4.90
2018-09-19T17:54:34.836Z,7.33
2018-09-19T17:57:02.950Z,4.73
2018-09-19T17:59:30.997Z,6.17
2018-09-19T18:01:59.042Z,5.50
2018-09-19T18:04:27.115Z,5.37
2018-09-19T18:06:55.190Z,5.80
2018-09-19T18:09:23.297Z,5.20
2018-09-19T18:11:51.359Z,5.23
2018-09-19T18:14:19.425Z,5.37
2018-09-19T18:16:47.536Z,5.20
2018-09-19T18:19:15.605Z,6.77
2018-09-19T18:21:43.697Z,5.20
2018-09-19T18:24:11.774Z,5.30
2018-09-19T18:26:39.833Z,4.50
2018-09-19T18:29:07.935Z,4.20
2018-09-19T18:31:36.125Z,4.70
2018-09-19T18:34:04.174Z,5.03
2018-09-19T18:36:32.235Z,4.10
2018-09-19T18:39:00.297Z,6.33
2018-09-19T18:41:28.407Z,4.13
2018-09-19T18:43:56.496Z,7.57
2018-09-19T18:46:25.269Z,5.83
2018-09-19T18:48:53.345Z,5.20
2018-09-19T18:51:21.426Z,6.83
2018-09-19T18:53:49.517Z,8.30
2018-09-19T18:56:17.597Z,8.50
2018-09-19T18:58:45.682Z,10.13
2018-09-19T19:01:13.745Z,11.50
2018-09-19T19:03:41.904Z,15.00
2018-09-19T19:06:09.974Z,17.20
2018-09-19T19:08:38.063Z,16.00
2018-09-19T19:11:06.197Z,14.73
2018-09-19T19:13:34.312Z,18.30
2018-09-19T19:16:02.442Z,21.30
2018-09-19T19:18:30.519Z,23.50
2018-09-19T19:20:58.575Z,21.57
2018-09-19T19:23:26.697Z,23.47
2018-09-19T19:25:54.774Z,26.97
2018-09-19T19:28:23.556Z,29.40
2018-09-19T19:30:51.815Z,29.20
2018-09-19T19:33:26.625Z,26.90
2018-09-19T19:35:54.706Z,28.87
2018-09-19T19:38:23.029Z,30.13
2018-09-19T19:40:51.133Z,30.17
2018-09-19T19:43:19.214Z,31.27
2018-09-19T19:45:47.289Z,30.00
2018-09-19T19:48:15.433Z,31.00
2018-09-19T19:50:43.597Z,31.43
2018-09-19T19:53:11.740Z,29.60
2018-09-19T19:55:39.847Z,32.40
2018-09-19T19:58:08.112Z,31.47
2018-09-19T20:00:36.166Z,31.13
2018-09-19T20:03:04.265Z,32.20
2018-09-19T20:05:32.371Z,30.33
2018-09-19T20:08:00.483Z,33.03
2018-09-19T20:10:28.562Z,31.63
2018-09-19T20:12:56.678Z,33.20
2018-09-19T20:15:24.784Z,32.60
2018-09-19T20:17:52.870Z,34.07
2018-09-19T20:20:21.017Z,34.47
2018-09-19T20:22:49.182Z,33.40
2018-09-19T20:25:17.271Z,33.13
2018-09-19T20:27:45.495Z,34.80
2018-09-19T20:30:13.582Z,33.00
2018-09-19T20:32:41.646Z,32.80
2018-09-19T20:35:09.730Z,33.30
2018-09-19T20:37:37.825Z,33.50
2018-09-19T20:40:06.171Z,31.27
2018-09-19T20:42:34.218Z,30.43
2018-09-19T20:45:02.328Z,27.17
2018-09-19T20:47:30.403Z,25.40
2018-09-19T20:49:58.469Z,25.70
2018-09-19T20:52:26.569Z,22.97
2018-09-19T20:54:54.834Z,24.40
2018-09-19T20:57:23.067Z,22.97
2018-09-19T20:59:51.205Z,30.50
2018-09-19T21:02:19.242Z,24.43
2018-09-19T21:04:47.335Z,26.60
2018-09-19T21:07:15.482Z,23.37
2018-09-19T21:09:44.546Z,26.80
2018-09-19T21:12:12.661Z,25.83
2018-09-19T21:14:40.732Z,23.90
2018-09-19T21:17:09.074Z,21.93
2018-09-19T21:19:37.141Z,20.67
2018-09-19T21:22:05.307Z,20.73
2018-09-19T21:24:33.291Z,21.20
2018-09-19T21:27:01.358Z,22.80
2018-09-19T21:29:29.477Z,20.10
2018-09-19T21:31:57.546Z,20.23
2018-09-19T21:34:25.678Z,21.07
2018-09-19T21:36:53.854Z,20.37
2018-09-19T21:39:22.161Z,17.90
2018-09-19T21:41:50.882Z,19.30
2018-09-19T21:44:19.072Z,17.27
2018-09-19T21:46:47.156Z,18.67
2018-09-19T21:49:15.342Z,18.13
2018-09-19T21:51:43.398Z,18.20
2018-09-19T21:54:11.494Z,16.80
2018-09-19T21:56:39.607Z,17.87
2018-09-19T21:59:07.749Z,16.97
2018-09-19T22:01:41.501Z,16.27
2018-09-19T22:04:10.689Z,15.97
2018-09-19T22:06:39.278Z,16.43
2018-09-19T22:09:09.545Z,13.93
2018-09-19T22:11:37.997Z,16.07
2018-09-19T22:14:06.357Z,15.17
2018-09-19T22:16:34.432Z,16.13
2018-09-19T22:19:02.570Z,14.67
2018-09-19T22:21:30.621Z,15.17
2018-09-19T22:23:58.694Z,16.37
2018-09-19T22:26:26.864Z,15.03
2018-09-19T22:28:54.981Z,15.50
2018-09-19T22:31:23.073Z,14.43
2018-09-19T22:33:51.835Z,14.90
2018-09-19T22:36:19.913Z,14.60
2018-09-19T22:38:48.021Z,14.70
2018-09-19T22:41:16.090Z,13.03
2018-09-19T22:43:44.165Z,13.03
2018-09-19T22:46:12.237Z,16.00
2018-09-19T22:48:40.324Z,12.90
2018-09-19T22:51:08.391Z,13.93
2018-09-19T22:53:36.635Z,13.47
2018-09-19T22:56:04.753Z,12.30
2018-09-19T22:58:32.879Z,13.67
2018-09-19T23:01:01.368Z,12.80
2018-09-19T23:03:29.577Z,12.77
2018-09-19T23:05:57.750Z,13.00
2018-09-19T23:08:25.966Z,15.47
2018-09-19T23:10:54.158Z,11.90
2018-09-19T23:13:22.432Z,10.50
2018-09-19T23:15:50.527Z,11.17
2018-09-19T23:18:18.922Z,14.87
2018-09-19T23:20:47.068Z,10.80
2018-09-19T23:23:15.686Z,14.13
2018-09-19T23:25:44.992Z,11.17
2018-09-19T23:28:14.160Z,11.40
2018-09-19T23:30:42.430Z,10.60
2018-09-19T23:33:10.498Z,11.97
2018-09-19T23:35:38.562Z,11.27
2018-09-19T23:38:06.625Z,10.10
2018-09-19T23:40:35.298Z,10.60
2018-09-19T23:43:03.502Z,11.67
2018-09-19T23:45:31.566Z,11.70
2018-09-19T23:47:59.624Z,11.10
2018-09-19T23:50:27.674Z,10.30
2018-09-19T23:52:55.765Z,11.17
2018-09-19T23:55:23.805Z,11.10
2018-09-19T23:57:51.899Z,9.63
